createdAt,value
2023-07-24T00:01:05.429Z,2.90
2023-07-24T00:06:08.611Z,2.80
2023-07-24T00:08:41.657Z,3.70
2023-07-24T00:11:14.011Z,3.10
2023-07-24T00:13:46.435Z,3.50
2023-07-24T00:16:18.841Z,2.70
2023-07-24T00:18:51.285Z,2.90
2023-07-24T00:21:23.515Z,3.00
2023-07-24T00:23:55.939Z,3.00
2023-07-24T00:26:28.756Z,2.70
2023-07-24T00:35:59.762Z,3.20
2023-07-24T00:38:32.107Z,2.70
2023-07-24T00:41:04.517Z,2.80
2023-07-24T00:43:36.823Z,2.80
2023-07-24T00:46:09.239Z,2.80
2023-07-24T00:48:41.628Z,3.00
2023-07-24T00:51:13.893Z,2.90
2023-07-24T00:53:48.902Z,3.10
2023-07-24T00:56:21.366Z,4.00
2023-07-24T00:58:53.925Z,3.90
2023-07-24T01:01:27.107Z,4.30
2023-07-24T01:04:00.788Z,4.40
2023-07-24T01:06:33.398Z,4.60
2023-07-24T01:09:06.050Z,4.70
2023-07-24T01:11:42.272Z,3.60
2023-07-24T01:14:20.185Z,3.80
2023-07-24T01:16:53.092Z,4.90
2023-07-24T01:19:38.813Z,3.70
2023-07-24T01:22:23.330Z,3.60
2023-07-24T01:25:17.014Z,4.30
2023-07-24T01:27:49.769Z,4.30
2023-07-24T01:30:23.394Z,3.90
2023-07-24T01:32:55.987Z,3.30
2023-07-24T01:35:28.900Z,3.70
2023-07-24T01:38:01.535Z,4.50
2023-07-24T01:40:34.577Z,3.90
2023-07-24T01:43:06.801Z,4.30
2023-07-24T01:48:10.786Z,3.90
2023-07-24T01:50:43.261Z,4.80
2023-07-24T01:53:15.795Z,4.40
2023-07-24T01:55:48.069Z,3.90
2023-07-24T02:00:51.710Z,4.20
2023-07-24T02:03:24.163Z,4.60
2023-07-24T02:05:56.433Z,4.80
2023-07-24T02:08:28.850Z,4.30
2023-07-24T02:11:01.400Z,4.30
2023-07-24T02:16:04.302Z,4.40
2023-07-24T02:18:36.732Z,3.90
2023-07-24T02:21:09.080Z,4.30
2023-07-24T02:26:12.052Z,4.80
2023-07-24T02:31:15.537Z,4.90
2023-07-24T02:33:47.751Z,5.60
2023-07-24T02:38:50.990Z,4.70
2023-07-24T02:43:54.176Z,5.40
2023-07-24T02:46:27.118Z,4.80
2023-07-24T02:49:00.180Z,4.90
2023-07-24T02:51:32.374Z,4.80
2023-07-24T02:54:04.618Z,4.50
2023-07-24T02:59:07.495Z,4.60
2023-07-24T03:01:40.186Z,4.40
2023-07-24T03:04:12.553Z,4.70
2023-07-24T03:06:45.077Z,4.40
2023-07-24T03:09:17.582Z,4.80
2023-07-24T03:11:49.957Z,4.40
2023-07-24T03:14:22.336Z,4.60
2023-07-24T03:19:25.399Z,4.50
2023-07-24T03:24:29.062Z,4.40
2023-07-24T03:27:02.102Z,4.30
2023-07-24T03:29:34.562Z,4.40
2023-07-24T03:32:07.593Z,4.50
2023-07-24T03:34:40.392Z,4.50
2023-07-24T03:37:12.724Z,4.90
2023-07-24T03:42:26.352Z,4.40
2023-07-24T03:44:59.615Z,4.30
2023-07-24T03:47:32.075Z,4.50
2023-07-24T03:50:04.651Z,4.50
2023-07-24T03:52:36.996Z,4.90
2023-07-24T03:55:11.902Z,5.10
2023-07-24T03:57:45.246Z,4.40
2023-07-24T04:00:19.879Z,4.80
2023-07-24T04:02:52.146Z,4.40
2023-07-24T04:05:24.507Z,4.10
2023-07-24T04:10:29.012Z,4.60
2023-07-24T04:13:01.464Z,5.10
2023-07-24T04:18:04.619Z,4.40
2023-07-24T04:20:37.322Z,4.30
2023-07-24T04:23:09.720Z,4.50
2023-07-24T04:28:13.065Z,4.90
2023-07-24T04:30:46.844Z,4.90
2023-07-24T04:33:19.338Z,5.70
2023-07-24T04:35:55.554Z,5.20
2023-07-24T04:38:29.323Z,5.20
2023-07-24T04:41:04.227Z,5.00
2023-07-24T04:43:37.759Z,4.90
2023-07-24T04:46:52.921Z,5.00
2023-07-24T04:49:39.804Z,4.10
2023-07-24T04:52:30.072Z,5.00
2023-07-24T04:55:39.918Z,4.70
2023-07-24T04:58:57.984Z,5.00
2023-07-24T05:01:55.301Z,4.20
2023-07-24T05:04:27.733Z,4.30
2023-07-24T05:07:00.328Z,4.00
2023-07-24T05:09:32.687Z,4.40
2023-07-24T05:12:05.830Z,3.90
2023-07-24T05:14:40.932Z,4.40
2023-07-24T05:17:33.231Z,4.30
2023-07-24T05:20:26.067Z,3.80
2023-07-24T05:23:00.918Z,3.80
2023-07-24T05:25:38.891Z,3.80
2023-07-24T05:28:11.567Z,4.50
2023-07-24T05:30:44.085Z,4.40
2023-07-24T05:33:16.626Z,4.60
2023-07-24T05:35:50.524Z,3.30
2023-07-24T05:38:22.887Z,3.30
2023-07-24T05:40:59.621Z,3.80
2023-07-24T05:43:33.760Z,3.80
2023-07-24T05:46:06.225Z,3.50
2023-07-24T05:48:38.707Z,4.30
2023-07-24T05:51:11.558Z,3.40
2023-07-24T05:53:44.126Z,3.40
2023-07-24T05:56:16.641Z,3.20
2023-07-24T05:58:49.032Z,3.60
2023-07-24T06:01:21.523Z,3.10
2023-07-24T06:03:54.253Z,3.40
2023-07-24T06:06:26.961Z,3.30
2023-07-24T06:08:59.422Z,2.90
2023-07-24T06:11:34.129Z,3.10
2023-07-24T06:14:06.740Z,4.40
2023-07-24T06:16:42.029Z,4.00
2023-07-24T06:19:14.993Z,3.40
2023-07-24T06:21:47.804Z,4.10
2023-07-24T06:24:24.871Z,3.20
2023-07-24T06:26:57.342Z,3.10
2023-07-24T06:29:29.960Z,3.40
2023-07-24T06:32:02.515Z,2.80
2023-07-24T06:34:35.096Z,3.10
2023-07-24T06:37:21.692Z,3.10
2023-07-24T06:39:55.067Z,4.10
2023-07-24T06:42:27.648Z,3.00
2023-07-24T06:45:02.094Z,2.80
2023-07-24T06:47:36.192Z,2.70
2023-07-24T06:50:18.724Z,3.90
2023-07-24T06:52:53.158Z,2.90
2023-07-24T06:55:29.220Z,2.70
2023-07-24T06:58:01.780Z,3.70
2023-07-24T07:00:34.084Z,3.50
2023-07-24T07:03:06.613Z,4.00
2023-07-24T07:05:39.284Z,2.80
2023-07-24T07:08:11.625Z,3.70
2023-07-24T07:10:44.206Z,2.90
2023-07-24T07:13:16.750Z,2.90
2023-07-24T07:15:49.361Z,2.70
2023-07-24T07:18:21.828Z,2.70
2023-07-24T07:20:55.627Z,3.10
2023-07-24T07:23:28.387Z,3.40
2023-07-24T07:26:00.953Z,2.90
2023-07-24T07:28:33.402Z,3.00
2023-07-24T07:31:05.892Z,2.30
2023-07-24T07:33:38.418Z,2.70
2023-07-24T07:36:11.133Z,3.00
2023-07-24T07:38:43.512Z,2.40
2023-07-24T07:41:15.909Z,2.70
2023-07-24T07:43:48.370Z,2.90
2023-07-24T07:46:21.181Z,2.00
2023-07-24T07:48:53.695Z,2.40
2023-07-24T07:51:27.010Z,2.50
2023-07-24T07:53:59.494Z,2.40
2023-07-24T07:56:32.232Z,2.20
2023-07-24T07:59:07.388Z,2.30
2023-07-24T08:01:41.678Z,3.00
2023-07-24T08:04:14.311Z,2.60
2023-07-24T08:06:46.754Z,2.70
2023-07-24T08:09:19.282Z,2.70
2023-07-24T08:11:54.377Z,2.60
2023-07-24T08:14:47.483Z,2.80
2023-07-24T08:17:21.414Z,2.20
2023-07-24T08:19:54.011Z,2.60
2023-07-24T08:22:26.510Z,2.70
2023-07-24T08:24:59.015Z,3.30
2023-07-24T08:27:31.701Z,2.60
2023-07-24T08:30:04.274Z,3.30
2023-07-24T08:32:36.962Z,2.70
2023-07-24T08:35:10.825Z,2.80
2023-07-24T08:37:46.535Z,2.80
2023-07-24T08:40:19.752Z,3.00
2023-07-24T08:42:53.022Z,2.60
2023-07-24T08:45:26.263Z,2.80
2023-07-24T08:47:59.649Z,2.70
2023-07-24T08:50:33.546Z,3.00
2023-07-24T08:53:09.635Z,2.70
2023-07-24T08:55:42.361Z,2.70
2023-07-24T08:58:15.031Z,2.50
2023-07-24T09:00:47.612Z,3.00
2023-07-24T09:03:20.438Z,3.20
2023-07-24T09:05:53.226Z,2.60
2023-07-24T09:08:36.439Z,2.80
2023-07-24T09:11:10.173Z,2.70
2023-07-24T09:13:46.367Z,2.90
2023-07-24T09:16:27.043Z,2.90
2023-07-24T09:19:10.770Z,3.00
2023-07-24T09:21:45.718Z,2.90
2023-07-24T09:24:19.008Z,2.70
2023-07-24T09:26:58.550Z,3.00
2023-07-24T09:29:36.608Z,2.70
2023-07-24T09:32:10.496Z,3.00
2023-07-24T09:34:47.449Z,2.80
2023-07-24T09:37:30.625Z,3.20
2023-07-24T09:40:05.806Z,2.70
2023-07-24T09:42:52.997Z,2.80
2023-07-24T09:45:36.465Z,2.60
2023-07-24T09:51:04.832Z,3.00
2023-07-24T09:53:44.037Z,3.00
2023-07-24T09:56:18.390Z,3.10
2023-07-24T09:58:55.597Z,2.90
2023-07-24T10:01:28.814Z,3.30
2023-07-24T10:04:03.122Z,2.70
2023-07-24T10:06:38.338Z,2.90
2023-07-24T10:09:11.641Z,2.60
2023-07-24T10:11:47.161Z,3.10
2023-07-24T10:14:19.874Z,2.80
2023-07-24T10:16:56.869Z,2.60
2023-07-24T10:19:40.417Z,2.10
2023-07-24T10:22:19.629Z,2.80
2023-07-24T10:24:52.063Z,2.60
2023-07-24T10:27:35.894Z,2.60
2023-07-24T10:32:54.152Z,2.60
2023-07-24T10:35:28.244Z,2.90
2023-07-24T10:38:06.122Z,2.80
2023-07-24T10:40:38.855Z,2.50
2023-07-24T10:43:12.558Z,2.50
2023-07-24T10:45:48.627Z,3.10
2023-07-24T10:50:04.934Z,2.50
2023-07-24T10:52:37.882Z,2.50
2023-07-24T10:55:11.618Z,2.50
2023-07-24T10:57:44.130Z,2.40
2023-07-24T11:00:18.883Z,2.70
2023-07-24T11:02:51.496Z,2.50
2023-07-24T11:05:24.081Z,2.40
2023-07-24T11:07:56.620Z,2.60
2023-07-24T11:10:30.990Z,2.70
2023-07-24T11:13:03.380Z,2.70
2023-07-24T11:15:36.364Z,2.90
2023-07-24T11:18:09.563Z,2.90
2023-07-24T11:20:45.677Z,2.60
2023-07-24T11:23:18.486Z,2.70
2023-07-24T11:25:52.474Z,2.90
2023-07-24T11:28:24.778Z,2.60
2023-07-24T11:30:57.415Z,2.70
2023-07-24T11:33:29.831Z,2.60
2023-07-24T11:36:02.406Z,2.70
2023-07-24T11:38:34.806Z,2.70
2023-07-24T11:41:07.228Z,3.30
2023-07-24T11:43:47.250Z,2.70
2023-07-24T11:46:28.570Z,3.10
2023-07-24T11:49:01.435Z,2.60
2023-07-24T11:51:35.710Z,3.00
2023-07-24T11:54:15.108Z,3.30
2023-07-24T11:56:56.040Z,3.00
2023-07-24T11:59:42.592Z,3.20
2023-07-24T12:02:15.485Z,3.30
2023-07-24T12:04:50.313Z,2.90
2023-07-24T12:07:22.852Z,3.40
2023-07-24T12:09:56.088Z,3.40
2023-07-24T12:12:28.415Z,3.20
2023-07-24T12:15:00.970Z,3.50
2023-07-24T12:17:33.494Z,3.10
2023-07-24T12:20:09.910Z,3.20
2023-07-24T12:22:43.303Z,3.60
2023-07-24T12:25:16.734Z,3.80
2023-07-24T12:27:49.335Z,3.50
2023-07-24T12:30:21.943Z,3.80
2023-07-24T12:32:54.469Z,4.00
2023-07-24T12:35:26.984Z,3.50
2023-07-24T12:37:59.206Z,3.70
2023-07-24T12:40:31.670Z,4.50
2023-07-24T12:43:04.058Z,3.80
2023-07-24T12:45:36.327Z,3.80
2023-07-24T12:48:09.102Z,3.60
2023-07-24T12:50:41.678Z,4.50
2023-07-24T12:53:16.181Z,4.30
2023-07-24T12:55:54.269Z,4.90
2023-07-24T12:58:26.521Z,4.70
2023-07-24T13:00:59.142Z,3.90
2023-07-24T13:03:31.578Z,4.50
2023-07-24T13:06:03.980Z,4.70
2023-07-24T13:08:36.649Z,4.40
2023-07-24T13:11:09.040Z,4.00
2023-07-24T13:13:41.577Z,4.50
2023-07-24T13:16:13.857Z,4.80
2023-07-24T13:18:46.374Z,5.00
2023-07-24T13:21:19.185Z,4.40
2023-07-24T13:23:52.764Z,4.50
2023-07-24T13:26:25.110Z,4.20
2023-07-24T13:28:57.639Z,4.90
2023-07-24T13:31:31.038Z,4.70
2023-07-24T13:34:03.548Z,4.90
2023-07-24T13:36:35.794Z,4.10
2023-07-24T13:39:08.296Z,4.90
2023-07-24T13:41:40.650Z,5.00
2023-07-24T13:44:13.576Z,4.70
2023-07-24T13:46:45.987Z,4.40
2023-07-24T13:49:18.348Z,5.50
2023-07-24T13:51:50.589Z,5.20
2023-07-24T13:54:22.907Z,4.50
2023-07-24T13:56:55.702Z,4.80
2023-07-24T13:59:28.080Z,4.80
2023-07-24T14:02:00.580Z,5.00
2023-07-24T14:04:33.135Z,5.40
2023-07-24T14:07:05.572Z,5.20
2023-07-24T14:09:37.723Z,5.40
2023-07-24T14:12:11.088Z,5.10
2023-07-24T14:14:43.407Z,5.20
2023-07-24T14:17:16.405Z,5.50
2023-07-24T14:19:48.796Z,5.30
2023-07-24T14:22:21.351Z,4.70
2023-07-24T14:24:53.921Z,5.00
2023-07-24T14:27:26.598Z,4.60
2023-07-24T14:29:59.239Z,5.40
2023-07-24T14:32:31.861Z,5.50
2023-07-24T14:35:04.449Z,5.00
2023-07-24T14:37:36.916Z,5.00
2023-07-24T14:40:12.233Z,4.90
2023-07-24T14:42:44.571Z,4.50
2023-07-24T14:45:16.982Z,5.20
2023-07-24T14:47:50.077Z,5.40
2023-07-24T14:50:22.506Z,5.40
2023-07-24T14:52:54.874Z,5.50
2023-07-24T14:55:27.424Z,5.00
2023-07-24T14:57:59.708Z,5.20
2023-07-24T15:00:32.130Z,5.30
2023-07-24T15:03:04.446Z,5.10
2023-07-24T15:05:37.482Z,5.70
2023-07-24T15:08:09.983Z,4.90
2023-07-24T15:10:42.418Z,4.30
2023-07-24T15:13:15.052Z,5.20
2023-07-24T15:15:47.345Z,4.70
2023-07-24T15:18:19.866Z,5.00
2023-07-24T15:20:52.351Z,4.80
2023-07-24T15:23:24.805Z,6.10
2023-07-24T15:25:57.263Z,5.50
2023-07-24T15:28:29.594Z,5.70
2023-07-24T15:31:02.207Z,5.60
2023-07-24T15:33:34.371Z,5.40
2023-07-24T15:36:06.970Z,5.30
2023-07-24T15:38:40.322Z,5.20
2023-07-24T15:41:12.876Z,5.00
2023-07-24T15:43:45.238Z,5.40
2023-07-24T15:46:18.439Z,5.20
2023-07-24T15:48:50.842Z,5.50
2023-07-24T15:51:26.470Z,5.70
2023-07-24T15:53:59.245Z,4.50
2023-07-24T15:56:31.797Z,5.10
2023-07-24T15:59:05.745Z,5.50
2023-07-24T16:01:38.254Z,5.80
2023-07-24T16:04:10.639Z,7.20
2023-07-24T16:06:43.194Z,6.40
2023-07-24T16:09:17.429Z,7.10
2023-07-24T16:11:49.592Z,6.70
2023-07-24T16:14:21.928Z,7.40
2023-07-24T16:16:55.095Z,7.20
2023-07-24T16:19:28.819Z,8.00
2023-07-24T16:22:01.193Z,7.90
2023-07-24T16:24:33.809Z,6.50
2023-07-24T16:27:08.900Z,6.60
2023-07-24T16:29:41.340Z,6.10
2023-07-24T16:32:13.757Z,6.80
2023-07-24T16:34:47.708Z,7.70
2023-07-24T16:37:20.289Z,7.40
2023-07-24T16:39:52.442Z,6.80
2023-07-24T16:42:25.045Z,8.30
2023-07-24T16:44:59.481Z,8.10
2023-07-24T16:47:31.917Z,8.30
2023-07-24T16:50:04.192Z,8.20
2023-07-24T16:52:36.611Z,8.20
2023-07-24T16:57:14.866Z,8.00
2023-07-24T16:59:47.250Z,8.00
2023-07-24T17:02:23.035Z,9.00
2023-07-24T17:04:57.936Z,9.00
2023-07-24T17:07:30.881Z,8.20
2023-07-24T17:22:50.239Z,8.40
2023-07-24T17:25:22.978Z,8.70
2023-07-24T17:27:55.511Z,8.70
2023-07-24T17:30:27.928Z,7.70
2023-07-24T17:33:02.917Z,9.10
2023-07-24T17:35:35.367Z,8.80
2023-07-24T17:38:08.164Z,8.80
2023-07-24T17:40:43.646Z,8.90
2023-07-24T17:43:16.041Z,8.50
2023-07-24T17:45:48.641Z,8.70
2023-07-24T17:48:20.874Z,8.70
2023-07-24T17:50:53.103Z,9.20
2023-07-24T17:53:25.624Z,8.00
2023-07-24T17:55:58.172Z,8.10
2023-07-24T17:58:33.435Z,7.70
2023-07-24T18:01:06.170Z,7.80
2023-07-24T18:03:38.700Z,7.70
2023-07-24T18:06:10.982Z,8.10
2023-07-24T18:08:43.689Z,8.40
2023-07-24T18:12:29.278Z,8.10
2023-07-24T18:15:01.780Z,7.10
2023-07-24T18:17:34.220Z,8.00
2023-07-24T18:20:08.137Z,8.40
2023-07-24T18:22:40.767Z,8.10
2023-07-24T18:25:13.829Z,7.90
2023-07-24T18:27:46.299Z,8.10
2023-07-24T18:30:18.982Z,7.90
2023-07-24T18:32:51.649Z,8.30
2023-07-24T18:35:24.389Z,8.40
2023-07-24T18:37:56.946Z,8.70
2023-07-24T18:40:29.387Z,8.70
2023-07-24T18:43:01.609Z,8.10
2023-07-24T18:45:34.141Z,8.10
2023-07-24T18:48:46.821Z,7.80
2023-07-24T18:51:23.895Z,7.80
2023-07-24T18:53:58.596Z,8.10
2023-07-24T18:56:31.497Z,8.20
2023-07-24T18:59:06.034Z,9.00
2023-07-24T19:01:38.397Z,7.50
2023-07-24T19:04:10.717Z,8.10
2023-07-24T19:06:43.227Z,7.00
2023-07-24T19:09:15.710Z,7.70
2023-07-24T19:11:55.930Z,8.30
2023-07-24T19:14:28.279Z,8.10
2023-07-24T19:17:00.577Z,7.90
2023-07-24T19:19:33.055Z,7.60
2023-07-24T19:22:07.892Z,8.00
2023-07-24T19:24:40.800Z,7.40
2023-07-24T19:27:13.686Z,7.70
2023-07-24T19:29:46.560Z,7.80
2023-07-24T19:32:19.081Z,8.90
2023-07-24T19:34:55.400Z,7.90
2023-07-24T19:37:27.973Z,8.50
2023-07-24T19:40:07.210Z,7.50
2023-07-24T19:42:39.608Z,8.30
2023-07-24T19:45:12.734Z,7.70
2023-07-24T19:47:46.567Z,8.20
2023-07-24T19:50:19.323Z,8.00
2023-07-24T19:52:51.876Z,8.60
2023-07-24T19:55:24.190Z,8.20
2023-07-24T19:57:56.565Z,8.90
2023-07-24T20:00:30.398Z,7.30
2023-07-24T20:03:05.345Z,7.80
2023-07-24T20:05:37.830Z,8.80
2023-07-24T20:08:10.075Z,8.30
2023-07-24T20:10:44.917Z,8.60
2023-07-24T20:13:17.291Z,8.50
2023-07-24T20:15:49.853Z,8.70
2023-07-24T20:18:22.353Z,8.30
2023-07-24T20:20:55.280Z,8.30
2023-07-24T20:23:27.666Z,8.10
2023-07-24T20:26:04.577Z,8.60
2023-07-24T20:28:39.194Z,8.50
2023-07-24T20:31:12.081Z,8.90
2023-07-24T20:33:44.379Z,8.30
2023-07-24T20:36:16.800Z,8.10
2023-07-24T20:38:49.223Z,8.50
2023-07-24T20:41:21.466Z,9.00
2023-07-24T20:43:53.867Z,8.50
2023-07-24T20:46:27.378Z,8.40
2023-07-24T20:48:59.560Z,9.10
2023-07-24T20:51:32.117Z,8.60
2023-07-24T20:54:04.760Z,8.50
2023-07-24T20:56:37.610Z,9.30
2023-07-24T20:59:09.990Z,10.00
2023-07-24T21:01:42.502Z,9.20
2023-07-24T21:04:14.854Z,10.00
2023-07-24T21:06:47.190Z,9.50
2023-07-24T21:09:19.849Z,9.90
2023-07-24T21:11:52.056Z,9.60
2023-07-24T21:14:24.245Z,9.50
2023-07-24T21:16:58.251Z,10.90
2023-07-24T21:19:30.603Z,10.20
2023-07-24T21:22:02.711Z,9.50
2023-07-24T21:24:35.061Z,11.00
2023-07-24T21:27:07.935Z,9.70
2023-07-24T21:29:40.343Z,10.00
2023-07-24T21:32:12.661Z,10.80
2023-07-24T21:34:44.816Z,10.10
2023-07-24T21:37:16.987Z,9.70
2023-07-24T21:39:49.275Z,10.50
2023-07-24T21:42:21.458Z,10.70
2023-07-24T21:44:53.821Z,10.00
2023-07-24T21:47:27.317Z,10.10
2023-07-24T21:49:59.703Z,10.70
2023-07-24T21:52:32.003Z,10.00
2023-07-24T21:55:04.370Z,10.30
2023-07-24T21:57:36.621Z,10.80
2023-07-24T22:00:10.546Z,10.20
2023-07-24T22:02:42.957Z,10.40
2023-07-24T22:05:15.365Z,9.70
2023-07-24T22:07:47.589Z,9.70
2023-07-24T22:10:20.154Z,10.00
2023-07-24T22:12:52.575Z,9.70
2023-07-24T22:15:25.008Z,9.80
2023-07-24T22:17:57.403Z,9.70
2023-07-24T22:20:39.138Z,10.30
2023-07-24T22:23:13.256Z,10.00
2023-07-24T22:25:45.584Z,9.60
2023-07-24T22:28:28.252Z,9.20
2023-07-24T22:31:00.793Z,10.00
2023-07-24T22:33:33.111Z,9.30
2023-07-24T22:36:05.936Z,9.90
2023-07-24T22:38:38.296Z,10.00
2023-07-24T22:41:14.352Z,10.30
2023-07-24T22:43:46.543Z,10.20
2023-07-24T22:46:18.918Z,9.70
2023-07-24T22:48:51.052Z,10.00
2023-07-24T22:51:23.376Z,9.30
2023-07-24T22:53:56.692Z,9.50
2023-07-24T22:56:29.352Z,8.90
2023-07-24T22:59:21.327Z,9.60
2023-07-24T23:01:55.329Z,10.20
2023-07-24T23:04:28.289Z,8.90
2023-07-24T23:07:00.947Z,9.10
2023-07-24T23:09:35.307Z,10.00
2023-07-24T23:12:08.756Z,10.70
2023-07-24T23:14:50.052Z,9.70
2023-07-24T23:17:22.274Z,9.70
2023-07-24T23:19:55.016Z,9.80
2023-07-24T23:22:27.629Z,10.00
2023-07-24T23:24:59.837Z,9.20
2023-07-24T23:27:32.726Z,9.90
2023-07-24T23:30:05.698Z,9.60
2023-07-24T23:32:38.135Z,9.80
2023-07-24T23:35:11.133Z,9.50
2023-07-24T23:37:43.264Z,8.80
2023-07-24T23:40:15.962Z,9.40
2023-07-24T23:42:50.200Z,9.00
2023-07-24T23:45:22.564Z,9.80
2023-07-24T23:47:54.901Z,10.10
2023-07-24T23:50:27.170Z,10.30
2023-07-24T23:52:59.953Z,9.60
2023-07-24T23:55:34.795Z,10.40
2023-07-24T23:58:07.161Z,10.30
